sensor_id;sensor_type;location;lat;lon;timestamp;P1;durP1;ratioP1;P2;durP2;ratioP2
24381;SDS011;12502;50.678;7.172;2022-12-10T00:00:05;77.63;;;38.65;;
24381;SDS011;12502;50.678;7.172;2022-12-10T00:05:07;77.70;;;36.60;;
24381;SDS011;12502;50.678;7.172;2022-12-10T00:10:09;71.55;;;34.47;;
24381;SDS011;12502;50.678;7.172;2022-12-10T00:15:11;70.50;;;32.42;;
24381;SDS011;12502;50.678;7.172;2022-12-10T00:20:13;69.68;;;34.78;;
24381;SDS011;12502;50.678;7.172;2022-12-10T00:25:16;76.30;;;36.33;;
24381;SDS011;12502;50.678;7.172;2022-12-10T00:30:18;52.42;;;26.55;;
24381;SDS011;12502;50.678;7.172;2022-12-10T00:35:19;80.32;;;37.83;;
24381;SDS011;12502;50.678;7.172;2022-12-10T00:40:21;78.78;;;37.00;;
24381;SDS011;12502;50.678;7.172;2022-12-10T00:45:23;72.28;;;36.35;;
24381;SDS011;12502;50.678;7.172;2022-12-10T00:50:25;69.53;;;35.70;;
24381;SDS011;12502;50.678;7.172;2022-12-10T00:55:27;71.70;;;36.20;;
24381;SDS011;12502;50.678;7.172;2022-12-10T01:00:28;74.35;;;37.25;;
24381;SDS011;12502;50.678;7.172;2022-12-10T01:05:30;75.65;;;37.10;;
24381;SDS011;12502;50.678;7.172;2022-12-10T01:10:32;71.53;;;35.70;;
24381;SDS011;12502;50.678;7.172;2022-12-10T01:15:36;77.07;;;37.05;;
24381;SDS011;12502;50.678;7.172;2022-12-10T01:20:39;73.03;;;35.75;;
24381;SDS011;12502;50.678;7.172;2022-12-10T01:25:41;79.85;;;37.95;;
24381;SDS011;12502;50.678;7.172;2022-12-10T01:30:43;72.85;;;35.38;;
24381;SDS011;12502;50.678;7.172;2022-12-10T01:35:44;70.38;;;35.00;;
24381;SDS011;12502;50.678;7.172;2022-12-10T01:40:46;73.43;;;36.78;;
24381;SDS011;12502;50.678;7.172;2022-12-10T01:45:48;75.45;;;36.80;;
24381;SDS011;12502;50.678;7.172;2022-12-10T01:50:50;74.65;;;36.40;;
24381;SDS011;12502;50.678;7.172;2022-12-10T01:55:51;73.13;;;35.45;;
24381;SDS011;12502;50.678;7.172;2022-12-10T02:00:59;73.75;;;35.15;;
24381;SDS011;12502;50.678;7.172;2022-12-10T02:11:24;81.18;;;38.25;;
24381;SDS011;12502;50.678;7.172;2022-12-10T02:17:16;78.60;;;37.33;;
24381;SDS011;12502;50.678;7.172;2022-12-10T02:22:19;75.97;;;36.42;;
24381;SDS011;12502;50.678;7.172;2022-12-10T02:27:26;77.43;;;37.00;;
24381;SDS011;12502;50.678;7.172;2022-12-10T02:32:37;71.63;;;34.45;;
24381;SDS011;12502;50.678;7.172;2022-12-10T02:37:49;74.93;;;37.00;;
24381;SDS011;12502;50.678;7.172;2022-12-10T02:42:55;78.47;;;37.83;;
24381;SDS011;12502;50.678;7.172;2022-12-10T02:47:57;78.55;;;35.38;;
24381;SDS011;12502;50.678;7.172;2022-12-10T02:58:05;77.63;;;36.83;;
24381;SDS011;12502;50.678;7.172;2022-12-10T03:08:28;72.40;;;34.22;;
24381;SDS011;12502;50.678;7.172;2022-12-10T03:13:36;69.63;;;33.63;;
24381;SDS011;12502;50.678;7.172;2022-12-10T03:18:42;77.93;;;37.38;;
24381;SDS011;12502;50.678;7.172;2022-12-10T03:23:46;72.28;;;34.50;;
24381;SDS011;12502;50.678;7.172;2022-12-10T03:28:50;81.63;;;37.08;;
24381;SDS011;12502;50.678;7.172;2022-12-10T03:34:04;68.25;;;33.85;;
24381;SDS011;12502;50.678;7.172;2022-12-10T03:39:08;69.47;;;34.17;;
24381;SDS011;12502;50.678;7.172;2022-12-10T03:44:10;69.05;;;31.85;;
24381;SDS011;12502;50.678;7.172;2022-12-10T03:49:12;74.45;;;37.00;;
24381;SDS011;12502;50.678;7.172;2022-12-10T03:54:14;65.70;;;33.67;;
24381;SDS011;12502;50.678;7.172;2022-12-10T03:59:16;65.63;;;33.67;;
24381;SDS011;12502;50.678;7.172;2022-12-10T04:04:18;58.30;;;30.63;;
24381;SDS011;12502;50.678;7.172;2022-12-10T04:09:20;70.18;;;34.10;;
24381;SDS011;12502;50.678;7.172;2022-12-10T04:14:21;65.80;;;31.88;;
24381;SDS011;12502;50.678;7.172;2022-12-10T04:19:42;66.50;;;30.90;;
24381;SDS011;12502;50.678;7.172;2022-12-10T04:24:44;67.40;;;33.75;;
24381;SDS011;12502;50.678;7.172;2022-12-10T04:30:05;65.13;;;32.35;;
24381;SDS011;12502;50.678;7.172;2022-12-10T04:35:09;69.07;;;33.05;;
24381;SDS011;12502;50.678;7.172;2022-12-10T04:40:11;63.28;;;32.42;;
24381;SDS011;12502;50.678;7.172;2022-12-10T04:45:13;65.95;;;34.10;;
24381;SDS011;12502;50.678;7.172;2022-12-10T04:50:14;74.63;;;36.67;;
24381;SDS011;12502;50.678;7.172;2022-12-10T04:55:16;71.95;;;35.92;;
24381;SDS011;12502;50.678;7.172;2022-12-10T05:00:18;83.20;;;38.22;;
24381;SDS011;12502;50.678;7.172;2022-12-10T05:05:20;80.78;;;37.40;;
24381;SDS011;12502;50.678;7.172;2022-12-10T05:10:21;78.88;;;37.40;;
24381;SDS011;12502;50.678;7.172;2022-12-10T05:15:23;79.70;;;37.70;;
24381;SDS011;12502;50.678;7.172;2022-12-10T05:20:25;80.22;;;36.38;;
24381;SDS011;12502;50.678;7.172;2022-12-10T05:25:27;83.57;;;38.00;;
24381;SDS011;12502;50.678;7.172;2022-12-10T05:30:28;67.68;;;34.33;;
24381;SDS011;12502;50.678;7.172;2022-12-10T05:35:30;78.28;;;36.08;;
24381;SDS011;12502;50.678;7.172;2022-12-10T05:40:35;81.70;;;37.90;;
24381;SDS011;12502;50.678;7.172;2022-12-10T05:45:37;76.72;;;36.15;;
24381;SDS011;12502;50.678;7.172;2022-12-10T05:50:39;76.22;;;34.85;;
24381;SDS011;12502;50.678;7.172;2022-12-10T05:55:41;77.85;;;36.88;;
24381;SDS011;12502;50.678;7.172;2022-12-10T06:00:42;71.70;;;36.33;;
24381;SDS011;12502;50.678;7.172;2022-12-10T06:05:44;66.88;;;32.88;;
24381;SDS011;12502;50.678;7.172;2022-12-10T06:10:46;64.80;;;34.85;;
24381;SDS011;12502;50.678;7.172;2022-12-10T06:15:48;72.50;;;35.80;;
24381;SDS011;12502;50.678;7.172;2022-12-10T06:20:49;77.63;;;35.25;;
24381;SDS011;12502;50.678;7.172;2022-12-10T06:25:51;76.63;;;36.72;;
24381;SDS011;12502;50.678;7.172;2022-12-10T06:30:53;80.93;;;39.60;;
24381;SDS011;12502;50.678;7.172;2022-12-10T06:35:54;78.57;;;36.92;;
24381;SDS011;12502;50.678;7.172;2022-12-10T06:40:56;76.97;;;38.80;;
24381;SDS011;12502;50.678;7.172;2022-12-10T06:45:58;73.28;;;35.97;;
24381;SDS011;12502;50.678;7.172;2022-12-10T06:51:00;69.85;;;35.85;;
24381;SDS011;12502;50.678;7.172;2022-12-10T06:56:02;76.80;;;36.85;;
24381;SDS011;12502;50.678;7.172;2022-12-10T07:01:07;77.65;;;36.40;;
24381;SDS011;12502;50.678;7.172;2022-12-10T07:06:17;74.22;;;37.58;;
24381;SDS011;12502;50.678;7.172;2022-12-10T07:11:21;83.80;;;38.35;;
24381;SDS011;12502;50.678;7.172;2022-12-10T07:16:25;75.45;;;35.58;;
24381;SDS011;12502;50.678;7.172;2022-12-10T07:21:30;79.72;;;37.03;;
24381;SDS011;12502;50.678;7.172;2022-12-10T07:26:35;75.50;;;35.65;;
24381;SDS011;12502;50.678;7.172;2022-12-10T07:31:38;75.47;;;36.10;;
24381;SDS011;12502;50.678;7.172;2022-12-10T07:36:40;71.50;;;35.88;;
24381;SDS011;12502;50.678;7.172;2022-12-10T07:41:42;76.55;;;38.10;;
24381;SDS011;12502;50.678;7.172;2022-12-10T07:46:45;78.90;;;37.72;;
24381;SDS011;12502;50.678;7.172;2022-12-10T07:51:47;71.32;;;34.58;;
24381;SDS011;12502;50.678;7.172;2022-12-10T07:56:50;74.60;;;36.40;;
24381;SDS011;12502;50.678;7.172;2022-12-10T08:01:52;67.43;;;34.30;;
24381;SDS011;12502;50.678;7.172;2022-12-10T08:06:54;65.57;;;33.20;;
24381;SDS011;12502;50.678;7.172;2022-12-10T08:11:56;64.88;;;33.60;;
24381;SDS011;12502;50.678;7.172;2022-12-10T08:16:58;69.10;;;35.33;;
24381;SDS011;12502;50.678;7.172;2022-12-10T08:21:59;69.95;;;34.55;;
24381;SDS011;12502;50.678;7.172;2022-12-10T08:27:01;63.78;;;33.55;;
24381;SDS011;12502;50.678;7.172;2022-12-10T08:32:03;67.45;;;33.08;;
24381;SDS011;12502;50.678;7.172;2022-12-10T08:37:04;64.68;;;34.13;;
24381;SDS011;12502;50.678;7.172;2022-12-10T08:42:12;64.50;;;33.03;;
24381;SDS011;12502;50.678;7.172;2022-12-10T08:47:14;65.88;;;32.78;;
24381;SDS011;12502;50.678;7.172;2022-12-10T08:52:15;59.22;;;31.95;;
24381;SDS011;12502;50.678;7.172;2022-12-10T08:57:17;57.22;;;31.02;;
24381;SDS011;12502;50.678;7.172;2022-12-10T09:02:19;55.42;;;29.73;;
24381;SDS011;12502;50.678;7.172;2022-12-10T09:07:20;55.20;;;30.42;;
24381;SDS011;12502;50.678;7.172;2022-12-10T09:12:23;45.97;;;26.27;;
24381;SDS011;12502;50.678;7.172;2022-12-10T09:17:25;33.80;;;19.10;;
24381;SDS011;12502;50.678;7.172;2022-12-10T09:22:28;34.42;;;18.77;;
24381;SDS011;12502;50.678;7.172;2022-12-10T09:27:30;36.80;;;20.17;;
24381;SDS011;12502;50.678;7.172;2022-12-10T09:32:32;36.03;;;19.27;;
24381;SDS011;12502;50.678;7.172;2022-12-10T09:37:34;40.97;;;22.52;;
24381;SDS011;12502;50.678;7.172;2022-12-10T09:53:03;41.60;;;23.08;;
24381;SDS011;12502;50.678;7.172;2022-12-10T09:58:08;48.72;;;27.08;;
24381;SDS011;12502;50.678;7.172;2022-12-10T10:03:40;47.80;;;27.10;;
24381;SDS011;12502;50.678;7.172;2022-12-10T10:08:47;44.55;;;24.63;;
24381;SDS011;12502;50.678;7.172;2022-12-10T10:19:02;35.60;;;20.23;;
24381;SDS011;12502;50.678;7.172;2022-12-10T10:24:13;40.90;;;22.25;;
24381;SDS011;12502;50.678;7.172;2022-12-10T10:29:18;38.38;;;21.15;;
24381;SDS011;12502;50.678;7.172;2022-12-10T10:34:22;39.72;;;22.85;;
24381;SDS011;12502;50.678;7.172;2022-12-10T10:39:28;37.83;;;21.58;;
24381;SDS011;12502;50.678;7.172;2022-12-10T10:44:35;34.58;;;19.30;;
24381;SDS011;12502;50.678;7.172;2022-12-10T10:49:39;37.88;;;22.20;;
24381;SDS011;12502;50.678;7.172;2022-12-10T10:54:45;38.60;;;22.48;;
24381;SDS011;12502;50.678;7.172;2022-12-10T10:59:48;39.00;;;19.37;;
24381;SDS011;12502;50.678;7.172;2022-12-10T11:04:51;42.50;;;24.85;;
24381;SDS011;12502;50.678;7.172;2022-12-10T11:09:56;39.70;;;22.70;;
24381;SDS011;12502;50.678;7.172;2022-12-10T11:14:58;40.78;;;22.13;;
24381;SDS011;12502;50.678;7.172;2022-12-10T11:20:12;36.33;;;21.02;;
24381;SDS011;12502;50.678;7.172;2022-12-10T11:25:32;41.90;;;23.35;;
24381;SDS011;12502;50.678;7.172;2022-12-10T11:36:41;41.92;;;23.17;;
24381;SDS011;12502;50.678;7.172;2022-12-10T11:48:06;40.20;;;22.00;;
24381;SDS011;12502;50.678;7.172;2022-12-10T12:03:37;43.33;;;22.73;;
24381;SDS011;12502;50.678;7.172;2022-12-10T12:13:58;40.17;;;22.15;;
24381;SDS011;12502;50.678;7.172;2022-12-10T12:19:17;38.38;;;20.63;;
24381;SDS011;12502;50.678;7.172;2022-12-10T12:24:45;39.65;;;19.88;;
24381;SDS011;12502;50.678;7.172;2022-12-10T12:30:03;36.70;;;19.60;;
24381;SDS011;12502;50.678;7.172;2022-12-10T12:35:21;42.95;;;22.10;;
24381;SDS011;12502;50.678;7.172;2022-12-10T12:40:49;37.58;;;21.42;;
24381;SDS011;12502;50.678;7.172;2022-12-10T12:46:14;34.38;;;19.13;;
24381;SDS011;12502;50.678;7.172;2022-12-10T12:51:27;41.08;;;20.75;;
24381;SDS011;12502;50.678;7.172;2022-12-10T13:07:38;35.55;;;19.70;;
24381;SDS011;12502;50.678;7.172;2022-12-10T13:18:00;39.60;;;22.38;;
24381;SDS011;12502;50.678;7.172;2022-12-10T13:23:27;38.15;;;19.65;;
24381;SDS011;12502;50.678;7.172;2022-12-10T13:44:21;42.55;;;22.73;;
24381;SDS011;12502;50.678;7.172;2022-12-10T13:49:29;44.65;;;25.50;;
24381;SDS011;12502;50.678;7.172;2022-12-10T13:54:49;40.67;;;23.40;;
24381;SDS011;12502;50.678;7.172;2022-12-10T14:00:22;45.00;;;23.75;;
24381;SDS011;12502;50.678;7.172;2022-12-10T14:10:45;43.42;;;23.40;;
24381;SDS011;12502;50.678;7.172;2022-12-10T14:15:55;37.23;;;21.47;;
24381;SDS011;12502;50.678;7.172;2022-12-10T14:20:59;46.08;;;25.60;;
24381;SDS011;12502;50.678;7.172;2022-12-10T14:26:10;41.30;;;23.75;;
24381;SDS011;12502;50.678;7.172;2022-12-10T14:31:13;44.30;;;25.05;;
24381;SDS011;12502;50.678;7.172;2022-12-10T14:36:49;44.10;;;24.13;;
24381;SDS011;12502;50.678;7.172;2022-12-10T14:41:55;41.17;;;23.15;;
24381;SDS011;12502;50.678;7.172;2022-12-10T14:47:03;38.80;;;23.83;;
24381;SDS011;12502;50.678;7.172;2022-12-10T14:57:30;41.53;;;22.25;;
24381;SDS011;12502;50.678;7.172;2022-12-10T15:02:41;43.42;;;20.55;;
24381;SDS011;12502;50.678;7.172;2022-12-10T15:08:00;43.00;;;21.38;;
24381;SDS011;12502;50.678;7.172;2022-12-10T15:13:17;46.72;;;23.52;;
24381;SDS011;12502;50.678;7.172;2022-12-10T15:18:27;41.45;;;20.83;;
24381;SDS011;12502;50.678;7.172;2022-12-10T15:23:34;41.92;;;22.42;;
24381;SDS011;12502;50.678;7.172;2022-12-10T15:28:37;44.33;;;22.60;;
24381;SDS011;12502;50.678;7.172;2022-12-10T15:33:44;41.35;;;23.08;;
24381;SDS011;12502;50.678;7.172;2022-12-10T15:39:04;43.80;;;24.30;;
24381;SDS011;12502;50.678;7.172;2022-12-10T15:44:17;42.08;;;23.55;;
24381;SDS011;12502;50.678;7.172;2022-12-10T15:49:19;40.30;;;21.42;;
24381;SDS011;12502;50.678;7.172;2022-12-10T15:54:22;44.80;;;24.20;;
24381;SDS011;12502;50.678;7.172;2022-12-10T15:59:24;44.58;;;23.65;;
24381;SDS011;12502;50.678;7.172;2022-12-10T16:04:26;48.60;;;24.73;;
24381;SDS011;12502;50.678;7.172;2022-12-10T16:09:27;47.85;;;25.38;;
24381;SDS011;12502;50.678;7.172;2022-12-10T16:14:29;48.22;;;25.63;;
24381;SDS011;12502;50.678;7.172;2022-12-10T16:19:31;50.10;;;25.15;;
24381;SDS011;12502;50.678;7.172;2022-12-10T16:24:32;50.78;;;25.85;;
24381;SDS011;12502;50.678;7.172;2022-12-10T16:29:34;47.38;;;26.20;;
24381;SDS011;12502;50.678;7.172;2022-12-10T16:34:36;54.05;;;27.95;;
24381;SDS011;12502;50.678;7.172;2022-12-10T16:39:38;53.75;;;28.98;;
24381;SDS011;12502;50.678;7.172;2022-12-10T16:44:50;47.72;;;26.52;;
24381;SDS011;12502;50.678;7.172;2022-12-10T16:49:51;51.72;;;26.40;;
24381;SDS011;12502;50.678;7.172;2022-12-10T16:54:53;52.10;;;27.05;;
24381;SDS011;12502;50.678;7.172;2022-12-10T16:59:55;54.25;;;26.60;;
24381;SDS011;12502;50.678;7.172;2022-12-10T17:04:57;50.70;;;27.55;;
24381;SDS011;12502;50.678;7.172;2022-12-10T17:09:58;50.90;;;27.83;;
24381;SDS011;12502;50.678;7.172;2022-12-10T17:15:02;50.33;;;28.83;;
24381;SDS011;12502;50.678;7.172;2022-12-10T17:20:14;51.30;;;26.65;;
24381;SDS011;12502;50.678;7.172;2022-12-10T17:25:18;53.83;;;28.47;;
24381;SDS011;12502;50.678;7.172;2022-12-10T17:30:19;52.47;;;27.38;;
24381;SDS011;12502;50.678;7.172;2022-12-10T17:35:21;54.03;;;28.08;;
24381;SDS011;12502;50.678;7.172;2022-12-10T17:40:27;53.20;;;28.58;;
24381;SDS011;12502;50.678;7.172;2022-12-10T17:45:29;54.30;;;27.95;;
24381;SDS011;12502;50.678;7.172;2022-12-10T17:50:35;53.45;;;28.27;;
24381;SDS011;12502;50.678;7.172;2022-12-10T17:55:38;51.60;;;26.80;;
24381;SDS011;12502;50.678;7.172;2022-12-10T18:00:48;46.67;;;26.42;;
24381;SDS011;12502;50.678;7.172;2022-12-10T18:05:52;53.60;;;28.30;;
24381;SDS011;12502;50.678;7.172;2022-12-10T18:10:53;47.97;;;26.20;;
24381;SDS011;12502;50.678;7.172;2022-12-10T18:15:56;50.75;;;26.55;;
24381;SDS011;12502;50.678;7.172;2022-12-10T18:20:58;48.40;;;26.55;;
24381;SDS011;12502;50.678;7.172;2022-12-10T18:25:59;46.20;;;25.15;;
24381;SDS011;12502;50.678;7.172;2022-12-10T18:31:02;54.92;;;28.17;;
24381;SDS011;12502;50.678;7.172;2022-12-10T18:36:04;51.55;;;27.27;;
24381;SDS011;12502;50.678;7.172;2022-12-10T18:41:09;47.83;;;27.15;;
24381;SDS011;12502;50.678;7.172;2022-12-10T18:46:16;51.78;;;26.70;;
24381;SDS011;12502;50.678;7.172;2022-12-10T18:51:28;52.53;;;28.90;;
24381;SDS011;12502;50.678;7.172;2022-12-10T18:56:30;51.22;;;29.17;;
24381;SDS011;12502;50.678;7.172;2022-12-10T19:01:32;37.03;;;20.77;;
24381;SDS011;12502;50.678;7.172;2022-12-10T19:06:34;52.10;;;27.85;;
24381;SDS011;12502;50.678;7.172;2022-12-10T19:11:37;55.95;;;28.58;;
24381;SDS011;12502;50.678;7.172;2022-12-10T19:16:38;57.50;;;30.05;;
24381;SDS011;12502;50.678;7.172;2022-12-10T19:21:40;65.22;;;31.83;;
24381;SDS011;12502;50.678;7.172;2022-12-10T19:26:42;58.38;;;30.40;;
24381;SDS011;12502;50.678;7.172;2022-12-10T19:31:44;56.58;;;30.33;;
24381;SDS011;12502;50.678;7.172;2022-12-10T19:36:47;54.10;;;28.88;;
24381;SDS011;12502;50.678;7.172;2022-12-10T19:41:52;56.35;;;30.63;;
24381;SDS011;12502;50.678;7.172;2022-12-10T19:46:55;57.50;;;30.42;;
24381;SDS011;12502;50.678;7.172;2022-12-10T19:51:57;53.78;;;29.02;;
24381;SDS011;12502;50.678;7.172;2022-12-10T19:56:58;52.20;;;28.42;;
24381;SDS011;12502;50.678;7.172;2022-12-10T20:02:00;55.10;;;29.42;;
24381;SDS011;12502;50.678;7.172;2022-12-10T20:07:02;59.92;;;29.80;;
24381;SDS011;12502;50.678;7.172;2022-12-10T20:12:04;51.95;;;28.52;;
24381;SDS011;12502;50.678;7.172;2022-12-10T20:17:07;55.73;;;29.83;;
24381;SDS011;12502;50.678;7.172;2022-12-10T20:22:12;60.22;;;30.02;;
24381;SDS011;12502;50.678;7.172;2022-12-10T20:27:14;55.80;;;29.77;;
24381;SDS011;12502;50.678;7.172;2022-12-10T20:32:16;59.15;;;31.55;;
24381;SDS011;12502;50.678;7.172;2022-12-10T20:37:20;61.90;;;31.00;;
24381;SDS011;12502;50.678;7.172;2022-12-10T20:42:22;56.40;;;29.77;;
24381;SDS011;12502;50.678;7.172;2022-12-10T20:47:23;58.05;;;29.33;;
24381;SDS011;12502;50.678;7.172;2022-12-10T20:52:25;58.30;;;30.83;;
24381;SDS011;12502;50.678;7.172;2022-12-10T20:57:28;58.90;;;32.15;;
24381;SDS011;12502;50.678;7.172;2022-12-10T21:02:29;59.60;;;30.90;;
24381;SDS011;12502;50.678;7.172;2022-12-10T21:07:32;62.40;;;32.73;;
24381;SDS011;12502;50.678;7.172;2022-12-10T21:12:34;59.58;;;31.15;;
24381;SDS011;12502;50.678;7.172;2022-12-10T21:17:45;61.75;;;31.95;;
24381;SDS011;12502;50.678;7.172;2022-12-10T21:22:46;61.55;;;32.50;;
24381;SDS011;12502;50.678;7.172;2022-12-10T21:27:49;59.70;;;31.95;;
24381;SDS011;12502;50.678;7.172;2022-12-10T21:32:51;48.57;;;25.53;;
24381;SDS011;12502;50.678;7.172;2022-12-10T21:38:01;63.92;;;32.75;;
24381;SDS011;12502;50.678;7.172;2022-12-10T21:43:10;59.20;;;31.30;;
24381;SDS011;12502;50.678;7.172;2022-12-10T21:48:24;63.38;;;31.88;;
24381;SDS011;12502;50.678;7.172;2022-12-10T21:53:27;58.95;;;30.90;;
24381;SDS011;12502;50.678;7.172;2022-12-10T21:58:30;60.97;;;32.80;;
24381;SDS011;12502;50.678;7.172;2022-12-10T22:03:33;63.05;;;32.70;;
24381;SDS011;12502;50.678;7.172;2022-12-10T22:08:35;62.70;;;32.78;;
24381;SDS011;12502;50.678;7.172;2022-12-10T22:13:37;66.75;;;33.90;;
24381;SDS011;12502;50.678;7.172;2022-12-10T22:18:39;61.13;;;31.30;;
24381;SDS011;12502;50.678;7.172;2022-12-10T22:23:42;63.65;;;32.38;;
24381;SDS011;12502;50.678;7.172;2022-12-10T22:28:44;41.67;;;22.38;;
24381;SDS011;12502;50.678;7.172;2022-12-10T22:33:46;58.97;;;32.50;;
24381;SDS011;12502;50.678;7.172;2022-12-10T22:38:48;70.63;;;33.65;;
24381;SDS011;12502;50.678;7.172;2022-12-10T22:43:52;53.75;;;30.42;;
24381;SDS011;12502;50.678;7.172;2022-12-10T22:48:53;56.38;;;30.35;;
24381;SDS011;12502;50.678;7.172;2022-12-10T22:53:55;62.58;;;30.83;;
24381;SDS011;12502;50.678;7.172;2022-12-10T22:59:00;62.35;;;32.42;;
24381;SDS011;12502;50.678;7.172;2022-12-10T23:04:13;61.47;;;32.42;;
24381;SDS011;12502;50.678;7.172;2022-12-10T23:09:18;62.58;;;33.03;;
24381;SDS011;12502;50.678;7.172;2022-12-10T23:14:20;64.00;;;33.75;;
24381;SDS011;12502;50.678;7.172;2022-12-10T23:19:22;59.85;;;31.88;;
24381;SDS011;12502;50.678;7.172;2022-12-10T23:24:24;61.15;;;32.78;;
24381;SDS011;12502;50.678;7.172;2022-12-10T23:29:26;61.90;;;32.88;;
24381;SDS011;12502;50.678;7.172;2022-12-10T23:34:34;61.60;;;33.35;;
24381;SDS011;12502;50.678;7.172;2022-12-10T23:39:38;61.53;;;31.55;;
24381;SDS011;12502;50.678;7.172;2022-12-10T23:44:49;62.50;;;31.60;;
24381;SDS011;12502;50.678;7.172;2022-12-10T23:49:52;58.13;;;30.65;;
24381;SDS011;12502;50.678;7.172;2022-12-10T23:54:56;64.85;;;32.80;;
24381;SDS011;12502;50.678;7.172;2022-12-10T23:59:58;60.42;;;30.92;;
